createdAt,value
2022-08-14T00:02:01.593Z,24.49
2022-08-14T00:04:34.304Z,24.51
2022-08-14T00:07:06.046Z,24.43
2022-08-14T00:09:56.182Z,24.40
2022-08-14T00:12:24.756Z,24.36
2022-08-14T00:15:02.782Z,24.16
2022-08-14T00:17:31.482Z,24.07
2022-08-14T00:20:08.659Z,23.96
2022-08-14T00:22:44.482Z,23.96
2022-08-14T00:25:41.819Z,23.96
2022-08-14T00:28:15.443Z,23.96
2022-08-14T00:30:47.005Z,23.99
2022-08-14T00:33:16.886Z,23.97
2022-08-14T00:36:37.432Z,23.89
2022-08-14T00:38:36.068Z,23.81
2022-08-14T00:41:06.969Z,23.59
2022-08-14T00:43:43.146Z,23.58
2022-08-14T00:46:23.289Z,23.53
2022-08-14T00:49:00.837Z,23.59
2022-08-14T00:51:34.693Z,23.50
2022-08-14T00:54:21.215Z,23.51
2022-08-14T00:56:55.529Z,23.58
2022-08-14T00:59:25.388Z,23.66
2022-08-14T01:01:58.604Z,23.69
2022-08-14T01:04:52.287Z,23.72
2022-08-14T01:07:21.150Z,23.71
2022-08-14T01:09:52.801Z,23.69
2022-08-14T01:12:26.902Z,23.69
2022-08-14T01:14:59.510Z,23.69
2022-08-14T01:17:50.805Z,23.71
2022-08-14T01:20:39.981Z,23.61
2022-08-14T01:23:16.820Z,23.59
2022-08-14T01:25:51.127Z,23.43
2022-08-14T01:28:46.408Z,23.30
2022-08-14T01:31:12.390Z,23.42
2022-08-14T01:34:00.470Z,23.53
2022-08-14T01:36:36.722Z,23.51
2022-08-14T01:39:09.557Z,23.40
2022-08-14T01:41:42.437Z,23.35
2022-08-14T01:44:32.458Z,23.36
2022-08-14T01:47:16.441Z,23.35
2022-08-14T01:49:59.873Z,23.42
2022-08-14T01:52:34.095Z,23.31
2022-08-14T01:55:23.302Z,23.24
2022-08-14T01:58:18.553Z,23.31
2022-08-14T02:00:39.982Z,23.35
2022-08-14T02:03:08.580Z,23.40
2022-08-14T02:05:39.011Z,23.28
2022-08-14T02:08:09.351Z,23.14
2022-08-14T02:10:47.339Z,23.15
2022-08-14T02:13:19.086Z,23.22
2022-08-14T02:15:48.803Z,23.21
2022-08-14T02:18:18.633Z,23.23
2022-08-14T02:20:47.661Z,23.10
2022-08-14T02:23:16.563Z,23.07
2022-08-14T02:26:24.380Z,22.99
2022-08-14T02:28:58.028Z,22.82
2022-08-14T02:31:36.381Z,22.74
2022-08-14T02:34:14.597Z,22.88
2022-08-14T02:37:04.089Z,22.76
2022-08-14T02:39:37.251Z,22.65
2022-08-14T02:42:13.201Z,22.67
2022-08-14T02:44:43.301Z,22.67
2022-08-14T02:47:20.873Z,22.72
2022-08-14T02:49:50.697Z,22.78
2022-08-14T02:52:56.510Z,22.73
2022-08-14T02:55:11.136Z,22.63
2022-08-14T02:57:41.084Z,22.61
2022-08-14T03:00:13.109Z,22.65
2022-08-14T03:02:56.797Z,22.65
2022-08-14T03:05:32.995Z,22.56
2022-08-14T03:08:09.545Z,22.63
2022-08-14T03:10:41.855Z,22.71
2022-08-14T03:13:19.820Z,22.73
2022-08-14T03:15:51.012Z,22.73
2022-08-14T03:18:30.569Z,22.69
2022-08-14T03:20:59.500Z,22.67
2022-08-14T03:23:27.945Z,22.73
2022-08-14T03:25:56.306Z,22.74
2022-08-14T03:28:29.558Z,22.74
2022-08-14T03:31:02.193Z,22.60
2022-08-14T03:33:38.277Z,22.30
2022-08-14T03:37:38.206Z,22.33
2022-08-14T03:39:12.832Z,22.39
2022-08-14T03:41:44.307Z,22.38
2022-08-14T03:45:26.903Z,22.38
2022-08-14T03:47:03.036Z,22.43
2022-08-14T03:49:31.484Z,22.48
2022-08-14T03:52:07.613Z,22.47
2022-08-14T03:54:46.425Z,22.47
2022-08-14T03:57:22.777Z,22.45
2022-08-14T03:59:53.107Z,22.45
2022-08-14T04:02:32.562Z,22.18
2022-08-14T04:05:11.711Z,21.85
2022-08-14T04:07:49.808Z,22.00
2022-08-14T04:10:32.136Z,22.09
2022-08-14T04:13:03.765Z,22.15
2022-08-14T04:15:56.293Z,22.17
2022-08-14T04:18:22.457Z,22.13
2022-08-14T04:20:54.630Z,22.11
2022-08-14T04:23:29.494Z,22.07
2022-08-14T04:26:02.451Z,22.06
2022-08-14T04:29:07.484Z,22.06
2022-08-14T04:31:25.063Z,22.05
2022-08-14T04:34:17.337Z,22.09
2022-08-14T04:37:08.215Z,22.09
2022-08-14T04:39:57.479Z,22.14
2022-08-14T04:42:46.900Z,22.16
2022-08-14T04:45:19.937Z,22.04
2022-08-14T04:48:10.098Z,21.60
2022-08-14T04:50:44.636Z,20.74
2022-08-14T04:53:15.627Z,20.95
2022-08-14T04:55:50.015Z,21.29
2022-08-14T04:58:21.815Z,21.36
2022-08-14T05:00:55.870Z,21.28
2022-08-14T05:03:32.052Z,21.42
2022-08-14T05:06:02.207Z,21.53
2022-08-14T05:08:57.480Z,21.58
2022-08-14T05:11:20.081Z,21.68
2022-08-14T05:16:37.947Z,21.82
2022-08-14T05:19:19.189Z,21.88
2022-08-14T05:22:16.414Z,21.83
2022-08-14T05:24:48.640Z,21.98
2022-08-14T05:27:22.214Z,22.00
2022-08-14T05:29:50.567Z,21.84
2022-08-14T05:32:18.556Z,21.42
2022-08-14T05:34:49.518Z,21.52
2022-08-14T05:37:17.491Z,21.70
2022-08-14T05:39:45.482Z,21.54
2022-08-14T05:42:22.228Z,21.41
2022-08-14T05:44:55.875Z,21.36
2022-08-14T05:47:24.196Z,21.62
2022-08-14T05:49:59.918Z,21.85
2022-08-14T05:52:38.510Z,21.97
2022-08-14T05:55:10.222Z,22.01
2022-08-14T05:57:48.983Z,21.92
2022-08-14T06:00:24.434Z,21.89
2022-08-14T06:02:57.247Z,21.81
2022-08-14T06:05:28.606Z,21.70
2022-08-14T06:07:57.625Z,21.18
2022-08-14T06:10:28.134Z,20.72
2022-08-14T06:13:05.867Z,20.55
2022-08-14T06:15:33.911Z,20.85
2022-08-14T06:18:02.015Z,21.20
2022-08-14T06:20:34.356Z,21.40
2022-08-14T06:23:02.767Z,21.59
2022-08-14T06:25:32.223Z,21.75
2022-08-14T06:28:02.146Z,21.82
2022-08-14T06:30:46.353Z,21.85
2022-08-14T06:33:16.585Z,21.89
2022-08-14T06:35:49.933Z,21.92
2022-08-14T06:38:23.301Z,22.01
2022-08-14T06:40:53.287Z,22.08
2022-08-14T06:43:27.075Z,22.07
2022-08-14T06:45:57.164Z,22.00
2022-08-14T06:48:26.199Z,21.92
2022-08-14T06:50:57.831Z,22.02
2022-08-14T06:53:28.094Z,22.02
2022-08-14T06:56:02.040Z,22.15
2022-08-14T06:58:32.170Z,22.21
2022-08-14T07:01:26.843Z,21.85
2022-08-14T07:04:22.902Z,21.46
2022-08-14T07:06:54.871Z,21.12
2022-08-14T07:09:27.984Z,21.23
2022-08-14T07:11:56.472Z,21.16
2022-08-14T07:14:25.902Z,21.18
2022-08-14T07:16:54.471Z,21.17
2022-08-14T07:19:23.225Z,21.29
2022-08-14T07:21:52.548Z,21.45
2022-08-14T07:24:21.723Z,21.59
2022-08-14T07:26:54.070Z,21.52
2022-08-14T07:29:26.274Z,21.61
2022-08-14T07:31:56.819Z,21.66
2022-08-14T07:34:36.335Z,21.69
2022-08-14T07:37:11.120Z,21.78
2022-08-14T07:39:39.200Z,21.54
2022-08-14T07:42:11.467Z,21.24
2022-08-14T07:44:45.937Z,21.15
2022-08-14T07:47:17.059Z,20.98
2022-08-14T07:49:59.837Z,20.95
2022-08-14T07:52:40.565Z,20.82
2022-08-14T07:55:10.770Z,20.93
2022-08-14T07:57:40.715Z,21.15
2022-08-14T08:00:12.431Z,21.43
2022-08-14T08:03:00.363Z,21.53
2022-08-14T08:05:28.985Z,21.53
2022-08-14T08:07:58.622Z,21.44
2022-08-14T08:11:01.853Z,21.20
2022-08-14T08:13:24.050Z,21.10
2022-08-14T08:15:54.878Z,21.24
2022-08-14T08:18:27.777Z,21.30
2022-08-14T08:20:59.652Z,20.90
2022-08-14T08:23:43.545Z,19.98
2022-08-14T08:26:19.739Z,19.81
2022-08-14T08:28:57.199Z,19.89
2022-08-14T08:31:32.841Z,19.91
2022-08-14T08:34:06.320Z,19.92
2022-08-14T08:36:41.928Z,19.83
2022-08-14T08:39:14.968Z,19.97
2022-08-14T08:41:49.250Z,19.92
2022-08-14T08:44:31.805Z,19.80
2022-08-14T08:47:05.560Z,19.97
2022-08-14T08:49:48.118Z,20.26
2022-08-14T08:52:24.469Z,20.18
2022-08-14T08:54:58.755Z,19.96
2022-08-14T08:57:26.850Z,19.81
2022-08-14T08:59:58.730Z,19.79
2022-08-14T09:02:27.880Z,19.86
2022-08-14T09:05:03.732Z,19.98
2022-08-14T09:07:31.716Z,19.86
2022-08-14T09:10:01.122Z,19.83
2022-08-14T09:12:32.461Z,19.79
2022-08-14T09:15:02.509Z,19.83
2022-08-14T09:17:30.887Z,20.00
2022-08-14T09:20:02.267Z,20.04
2022-08-14T09:22:34.789Z,19.87
2022-08-14T09:25:19.735Z,20.02
2022-08-14T09:27:49.152Z,19.96
2022-08-14T09:30:31.748Z,19.80
2022-08-14T09:33:23.236Z,19.64
2022-08-14T09:36:08.941Z,19.75
2022-08-14T09:38:47.278Z,19.78
2022-08-14T09:42:21.891Z,19.78
2022-08-14T09:44:45.824Z,19.87
2022-08-14T09:47:14.582Z,20.03
2022-08-14T09:49:43.462Z,20.16
2022-08-14T09:52:32.679Z,20.14
2022-08-14T09:55:03.383Z,20.26
2022-08-14T09:57:33.436Z,20.42
2022-08-14T10:00:29.288Z,20.61
2022-08-14T10:03:03.621Z,20.79
2022-08-14T10:05:37.921Z,21.05
2022-08-14T10:08:25.607Z,21.18
2022-08-14T10:11:02.848Z,21.14
2022-08-14T10:13:42.860Z,21.13
2022-08-14T10:16:27.455Z,21.13
2022-08-14T10:19:09.485Z,21.27
2022-08-14T10:21:58.854Z,21.36
2022-08-14T10:24:36.504Z,21.34
2022-08-14T10:27:05.536Z,21.43
2022-08-14T10:29:37.567Z,21.62
2022-08-14T10:32:17.264Z,21.72
2022-08-14T10:34:52.509Z,21.86
2022-08-14T10:37:23.163Z,21.99
2022-08-14T10:40:05.337Z,22.13
2022-08-14T10:42:39.666Z,22.17
2022-08-14T10:45:21.886Z,22.11
2022-08-14T10:48:09.611Z,22.13
2022-08-14T10:50:46.476Z,22.20
2022-08-14T10:53:15.523Z,22.27
2022-08-14T10:55:45.487Z,22.24
2022-08-14T10:58:14.951Z,22.14
2022-08-14T11:00:57.154Z,22.12
2022-08-14T11:03:35.771Z,22.16
2022-08-14T11:06:19.948Z,22.05
2022-08-14T11:08:50.851Z,21.85
2022-08-14T11:11:19.508Z,21.77
2022-08-14T11:13:47.821Z,21.84
2022-08-14T11:16:18.282Z,22.01
2022-08-14T11:18:50.898Z,22.13
2022-08-14T11:21:23.363Z,22.14
2022-08-14T11:23:53.771Z,22.17
2022-08-14T11:26:28.097Z,22.19
2022-08-14T11:29:01.406Z,22.29
2022-08-14T11:31:38.809Z,22.39
2022-08-14T11:34:30.023Z,22.38
2022-08-14T11:37:04.297Z,22.48
2022-08-14T11:39:45.601Z,22.55
2022-08-14T11:42:58.244Z,22.50
2022-08-14T11:45:16.929Z,22.47
2022-08-14T11:48:12.605Z,22.50
2022-08-14T11:50:37.731Z,22.54
2022-08-14T11:53:08.824Z,22.59
2022-08-14T11:55:39.335Z,22.62
2022-08-14T11:58:10.624Z,22.52
2022-08-14T12:00:48.631Z,22.28
2022-08-14T12:03:27.053Z,22.34
2022-08-14T12:06:21.591Z,22.35
2022-08-14T12:08:59.925Z,22.34
2022-08-14T12:11:43.462Z,22.54
2022-08-14T12:14:30.926Z,22.51
2022-08-14T12:17:05.224Z,22.49
2022-08-14T12:19:51.518Z,22.42
2022-08-14T12:22:34.059Z,22.33
2022-08-14T12:25:04.185Z,22.58
2022-08-14T12:27:51.733Z,22.70
2022-08-14T12:30:39.387Z,22.88
2022-08-14T12:33:23.954Z,22.94
2022-08-14T12:35:57.913Z,22.87
2022-08-14T12:38:38.641Z,22.68
2022-08-14T12:41:16.491Z,22.17
2022-08-14T12:43:53.763Z,21.84
2022-08-14T12:46:27.179Z,21.94
2022-08-14T12:48:57.428Z,22.01
2022-08-14T12:51:30.836Z,22.03
2022-08-14T12:54:00.946Z,22.18
2022-08-14T12:56:33.780Z,22.23
2022-08-14T12:59:03.399Z,22.18
2022-08-14T13:01:59.363Z,22.12
2022-08-14T13:04:22.994Z,22.00
2022-08-14T13:06:52.889Z,22.05
2022-08-14T13:09:21.248Z,22.02
2022-08-14T13:11:58.940Z,22.12
2022-08-14T13:14:47.910Z,22.48
2022-08-14T13:17:17.384Z,22.76
2022-08-14T13:19:47.287Z,22.96
2022-08-14T13:22:28.911Z,23.04
2022-08-14T13:25:01.286Z,22.94
2022-08-14T13:27:39.234Z,22.89
2022-08-14T13:30:13.751Z,22.91
2022-08-14T13:32:49.464Z,22.70
2022-08-14T13:35:19.004Z,22.64
2022-08-14T13:37:49.911Z,22.61
2022-08-14T13:40:26.313Z,22.72
2022-08-14T13:42:56.883Z,23.08
2022-08-14T13:45:27.576Z,23.31
2022-08-14T13:48:28.437Z,23.37
2022-08-14T13:51:04.878Z,23.37
2022-08-14T13:53:49.503Z,23.51
2022-08-14T13:56:36.998Z,23.56
2022-08-14T13:59:06.432Z,23.63
2022-08-14T14:01:42.780Z,23.69
2022-08-14T14:04:19.467Z,23.79
2022-08-14T14:06:49.808Z,23.91
2022-08-14T14:09:32.238Z,23.96
2022-08-14T14:12:01.452Z,24.01
2022-08-14T14:14:51.175Z,24.11
2022-08-14T14:17:24.506Z,24.11
2022-08-14T14:19:53.459Z,24.06
2022-08-14T14:22:35.815Z,24.08
2022-08-14T14:25:14.524Z,24.24
2022-08-14T14:27:49.446Z,24.51
2022-08-14T14:30:52.201Z,24.66
2022-08-14T14:33:41.879Z,24.96
2022-08-14T14:36:05.052Z,25.37
2022-08-14T14:38:34.786Z,25.48
2022-08-14T14:41:05.737Z,25.49
2022-08-14T14:43:39.094Z,25.57
2022-08-14T14:46:09.113Z,25.47
2022-08-14T14:48:46.744Z,25.38
2022-08-14T14:51:22.863Z,25.07
2022-08-14T14:53:52.465Z,25.08
2022-08-14T14:56:51.645Z,24.63
2022-08-14T14:59:13.167Z,24.30
2022-08-14T15:01:41.669Z,24.24
2022-08-14T15:04:20.857Z,24.17
2022-08-14T15:06:50.052Z,24.20
2022-08-14T15:09:20.340Z,24.23
2022-08-14T15:11:49.934Z,24.13
2022-08-14T15:14:57.340Z,24.15
2022-08-14T15:17:06.559Z,23.87
2022-08-14T15:19:34.870Z,23.84
2022-08-14T15:22:03.592Z,23.97
2022-08-14T15:24:31.681Z,24.17
2022-08-14T15:27:03.206Z,24.29
2022-08-14T15:29:31.153Z,24.45
2022-08-14T15:31:59.684Z,24.66
2022-08-14T15:34:44.342Z,24.90
2022-08-14T15:37:16.692Z,24.92
2022-08-14T15:39:45.453Z,24.76
2022-08-14T15:42:15.851Z,24.58
2022-08-14T15:44:57.491Z,24.35
2022-08-14T15:47:29.566Z,24.24
2022-08-14T15:49:59.316Z,24.32
2022-08-14T15:52:32.974Z,24.43
2022-08-14T15:55:06.770Z,24.46
2022-08-14T15:57:37.385Z,24.56
2022-08-14T16:00:43.283Z,25.11
2022-08-14T16:03:15.614Z,25.85
2022-08-14T16:05:44.497Z,25.94
2022-08-14T16:08:26.543Z,25.84
2022-08-14T16:10:58.233Z,25.82
2022-08-14T16:13:41.209Z,25.18
2022-08-14T16:16:49.015Z,24.08
2022-08-14T16:19:07.545Z,23.96
2022-08-14T16:21:40.493Z,24.12
2022-08-14T16:24:27.696Z,24.07
2022-08-14T16:27:00.420Z,24.18
2022-08-14T16:29:31.554Z,24.23
2022-08-14T16:32:01.614Z,24.18
2022-08-14T16:34:45.901Z,24.12
2022-08-14T16:37:18.446Z,24.14
2022-08-14T16:39:48.643Z,24.13
2022-08-14T16:43:03.362Z,24.06
2022-08-14T16:45:10.103Z,23.93
2022-08-14T16:47:39.769Z,23.87
2022-08-14T16:50:11.321Z,23.71
2022-08-14T16:52:44.510Z,23.62
2022-08-14T16:55:14.342Z,23.59
2022-08-14T16:57:50.215Z,23.47
2022-08-14T17:00:44.128Z,23.44
2022-08-14T17:03:14.637Z,23.16
2022-08-14T17:05:47.040Z,22.74
2022-08-14T17:08:31.781Z,22.44
2022-08-14T17:11:11.124Z,22.18
2022-08-14T17:13:57.969Z,22.27
2022-08-14T17:16:37.525Z,22.34
2022-08-14T17:19:11.621Z,22.41
2022-08-14T17:21:46.872Z,22.46
2022-08-14T17:24:56.987Z,22.37
2022-08-14T17:27:08.581Z,22.20
2022-08-14T17:29:44.683Z,21.99
2022-08-14T17:32:29.398Z,21.76
2022-08-14T17:35:16.817Z,21.61
2022-08-14T17:37:56.067Z,21.55
2022-08-14T17:40:30.773Z,21.65
2022-08-14T17:43:01.840Z,21.69
2022-08-14T17:45:46.988Z,21.71
2022-08-14T17:49:09.967Z,21.73
2022-08-14T17:51:23.997Z,21.78
2022-08-14T17:54:02.976Z,21.79
2022-08-14T17:56:33.556Z,21.61
2022-08-14T17:59:05.319Z,21.60
2022-08-14T18:01:38.900Z,21.52
2022-08-14T18:04:24.729Z,21.56
2022-08-14T18:07:16.831Z,21.67
2022-08-14T18:09:58.592Z,21.60
2022-08-14T18:12:36.524Z,21.59
2022-08-14T18:15:16.100Z,21.60
2022-08-14T18:17:52.822Z,21.57
2022-08-14T18:21:40.069Z,21.51
2022-08-14T18:23:14.200Z,21.36
2022-08-14T18:25:49.428Z,21.32
2022-08-14T18:28:51.096Z,21.31
2022-08-14T18:31:42.185Z,21.15
2022-08-14T18:34:30.924Z,21.15
2022-08-14T18:37:17.852Z,21.13
2022-08-14T18:40:03.249Z,20.62
2022-08-14T18:42:44.666Z,20.26
2022-08-14T18:45:18.647Z,20.37
2022-08-14T18:48:14.061Z,20.64
2022-08-14T18:50:52.249Z,20.62
2022-08-14T18:53:25.406Z,20.54
2022-08-14T18:56:09.930Z,20.54
2022-08-14T18:58:48.937Z,20.52
2022-08-14T19:01:27.147Z,20.51
2022-08-14T19:03:57.924Z,20.54
2022-08-14T19:06:56.013Z,20.52
2022-08-14T19:09:58.835Z,20.54
2022-08-14T19:13:05.001Z,20.60
2022-08-14T19:15:43.393Z,20.62
2022-08-14T19:18:25.822Z,20.61
2022-08-14T19:20:56.542Z,20.67
2022-08-14T19:23:43.989Z,20.74
2022-08-14T19:26:33.777Z,20.74
2022-08-14T19:29:36.007Z,20.75
2022-08-14T19:32:07.244Z,20.74
2022-08-14T19:34:48.153Z,20.76
2022-08-14T19:37:45.953Z,20.75
2022-08-14T19:40:19.327Z,20.76
2022-08-14T19:42:50.426Z,20.75
2022-08-14T19:45:18.706Z,20.75
2022-08-14T19:47:49.902Z,20.78
2022-08-14T19:50:31.083Z,20.78
2022-08-14T19:53:11.105Z,20.79
2022-08-14T19:55:45.517Z,20.70
2022-08-14T19:58:15.315Z,20.63
2022-08-14T20:00:52.386Z,20.57
2022-08-14T20:03:24.119Z,20.55
2022-08-14T20:06:01.772Z,20.57
2022-08-14T20:11:07.164Z,20.52
2022-08-14T20:12:00.480Z,20.41
2022-08-14T20:14:20.547Z,20.45
2022-08-14T20:16:54.279Z,20.48
2022-08-14T20:19:28.733Z,20.38
2022-08-14T20:22:04.650Z,20.19
2022-08-14T20:24:49.947Z,20.08
2022-08-14T20:27:38.780Z,20.07
2022-08-14T20:30:35.329Z,20.23
2022-08-14T20:33:07.903Z,20.30
2022-08-14T20:35:43.284Z,20.32
2022-08-14T20:38:31.363Z,20.33
2022-08-14T20:41:06.552Z,20.21
2022-08-14T20:43:55.256Z,20.30
2022-08-14T20:46:29.921Z,20.34
2022-08-14T20:49:00.683Z,20.38
2022-08-14T20:51:47.514Z,20.39
2022-08-14T20:54:34.642Z,20.35
2022-08-14T20:57:09.232Z,20.34
2022-08-14T20:59:43.649Z,20.33
2022-08-14T21:02:29.686Z,20.37
2022-08-14T21:05:00.611Z,20.42
2022-08-14T21:07:50.433Z,20.41
2022-08-14T21:10:36.057Z,20.33
2022-08-14T21:13:25.604Z,20.33
2022-08-14T21:15:57.823Z,20.33
2022-08-14T21:18:30.455Z,20.30
2022-08-14T21:21:06.718Z,20.30
2022-08-14T21:23:36.199Z,20.33
2022-08-14T21:26:51.305Z,20.27
2022-08-14T21:29:14.627Z,20.29
2022-08-14T21:31:43.142Z,20.31
2022-08-14T21:34:31.001Z,20.27
2022-08-14T21:37:09.866Z,20.28
2022-08-14T21:39:38.426Z,20.23
2022-08-14T21:42:06.896Z,20.15
2022-08-14T21:44:43.873Z,20.05
2022-08-14T21:47:16.120Z,20.04
2022-08-14T21:49:48.082Z,19.94
2022-08-14T21:52:49.267Z,19.93
2022-08-14T21:55:13.679Z,19.88
2022-08-14T21:57:55.751Z,19.98
2022-08-14T22:00:31.579Z,20.00
2022-08-14T22:03:06.467Z,20.02
2022-08-14T22:05:40.035Z,20.04
2022-08-14T22:08:12.338Z,20.05
2022-08-14T22:10:44.720Z,19.99
2022-08-14T22:13:15.874Z,20.02
2022-08-14T22:15:49.484Z,20.05
2022-08-14T22:18:20.733Z,20.00
2022-08-14T22:20:53.755Z,20.00
2022-08-14T22:23:25.825Z,20.02
2022-08-14T22:25:55.173Z,20.03
2022-08-14T22:28:27.289Z,20.01
2022-08-14T22:31:02.771Z,19.99
2022-08-14T22:33:31.797Z,20.00
2022-08-14T22:36:25.063Z,20.03
2022-08-14T22:38:54.270Z,20.03
2022-08-14T22:41:32.559Z,20.00
2022-08-14T22:44:05.219Z,20.00
2022-08-14T22:46:34.617Z,20.04
2022-08-14T22:49:16.820Z,20.06
2022-08-14T22:51:53.068Z,20.03
2022-08-14T22:54:52.874Z,20.04
2022-08-14T22:57:10.282Z,20.04
2022-08-14T22:59:39.039Z,20.06
2022-08-14T23:02:12.605Z,20.07
2022-08-14T23:04:54.369Z,20.06
2022-08-14T23:09:01.665Z,20.09
2022-08-14T23:10:31.865Z,19.95
2022-08-14T23:13:04.720Z,19.82
2022-08-14T23:15:34.059Z,19.86
2022-08-14T23:18:03.224Z,19.97
2022-08-14T23:20:33.727Z,19.90
2022-08-14T23:23:13.479Z,19.82
2022-08-14T23:26:00.186Z,19.82
2022-08-14T23:28:58.328Z,19.68
2022-08-14T23:31:36.052Z,19.79
2022-08-14T23:34:06.860Z,19.85
2022-08-14T23:36:37.999Z,19.86
2022-08-14T23:39:29.594Z,19.83
2022-08-14T23:42:02.404Z,19.82
2022-08-14T23:44:35.331Z,19.83
2022-08-14T23:47:12.149Z,19.85
2022-08-14T23:50:00.127Z,19.74
2022-08-14T23:52:50.578Z,19.75
2022-08-14T23:55:19.500Z,19.69
2022-08-14T23:57:58.169Z,19.69
